Wallback, West Virginia
Current Conditions -  °F | °C
As of 10:54 AM on Friday 19 Dec 2014 (Local Time) from KCRW Reporting Station
Overcast Overcast  
Wind Chill: 30°   Ceiling: 1900
Heat Index: 30°   Visibility: 8mi
Dew Point: 22°   Wind: 3mph
Humidity: 72%   Direction: 300°WNW
Pressure: 30.27"   Gusts: NA
Location:  38.57°N, 81.13°W
Report Text: KCRW 191554Z 30003KT 8SM OVC019 M01/M06 A3027 RMK AO2 SLP259 T10111056
Loading
Personal Weather Stations






























Interactive Weather Map New forecast layout! Learn more

10-Day Weather Forecast

Advertisements
Track Severe Weather on mobile